createdAt,value
2022-12-04T00:00:55.512Z,10.47
2022-12-04T00:03:17.360Z,9.90
2022-12-04T00:05:38.904Z,11.03
2022-12-04T00:08:00.497Z,11.27
2022-12-04T00:10:22.137Z,11.37
2022-12-04T00:12:43.578Z,11.27
2022-12-04T00:17:48.611Z,11.90
2022-12-04T00:20:10.375Z,12.17
2022-12-04T00:22:31.833Z,12.73
2022-12-04T00:24:53.285Z,13.03
2022-12-04T00:27:14.743Z,12.20
2022-12-04T00:29:36.964Z,11.40
2022-12-04T00:31:58.507Z,12.37
2022-12-04T00:34:22.053Z,12.00
2022-12-04T00:36:43.744Z,12.00
2022-12-04T00:39:05.735Z,12.17
2022-12-04T00:41:28.759Z,11.37
2022-12-04T00:43:50.604Z,11.03
2022-12-04T00:46:13.059Z,10.53
2022-12-04T00:48:34.988Z,12.20
2022-12-04T00:50:58.294Z,11.23
2022-12-04T00:53:19.937Z,10.87
2022-12-04T00:55:43.248Z,11.50
2022-12-04T00:58:05.151Z,11.77
2022-12-04T01:00:26.626Z,12.10
2022-12-04T01:02:48.164Z,11.73
2022-12-04T01:05:10.107Z,11.53
2022-12-04T01:07:31.630Z,10.73
2022-12-04T01:09:53.234Z,11.80
2022-12-04T01:12:20.375Z,11.53
2022-12-04T01:14:42.264Z,11.60
2022-12-04T01:17:03.778Z,10.87
2022-12-04T01:19:25.293Z,11.50
2022-12-04T01:21:46.785Z,11.83
2022-12-04T01:24:08.924Z,11.60
2022-12-04T01:26:30.467Z,11.70
2022-12-04T01:28:51.940Z,11.37
2022-12-04T01:31:16.408Z,10.70
2022-12-04T01:33:38.924Z,10.63
2022-12-04T01:36:01.894Z,10.90
2022-12-04T01:38:24.068Z,10.70
2022-12-04T01:40:45.603Z,10.93
2022-12-04T01:43:12.321Z,10.67
2022-12-04T01:45:42.952Z,11.73
2022-12-04T01:48:22.946Z,15.33
2022-12-04T01:50:45.634Z,13.90
2022-12-04T01:53:07.482Z,12.17
2022-12-04T01:55:30.621Z,11.90
2022-12-04T01:57:52.098Z,12.13
2022-12-04T02:00:15.970Z,11.77
2022-12-04T02:02:45.146Z,10.80
2022-12-04T02:05:10.442Z,12.47
2022-12-04T02:07:32.654Z,12.10
2022-12-04T02:09:56.301Z,11.67
2022-12-04T02:12:39.521Z,11.40
2022-12-04T02:15:16.845Z,12.13
2022-12-04T02:17:59.320Z,12.37
2022-12-04T02:20:39.034Z,11.77
2022-12-04T02:23:16.736Z,12.43
2022-12-04T02:25:55.426Z,12.00
2022-12-04T02:28:29.845Z,12.77
2022-12-04T02:30:56.629Z,11.80
2022-12-04T02:33:23.402Z,12.00
2022-12-04T02:36:04.509Z,12.33
2022-12-04T02:38:35.023Z,12.43
2022-12-04T02:41:23.032Z,11.63
2022-12-04T02:43:52.382Z,12.73
2022-12-04T02:46:24.706Z,13.33
2022-12-04T02:48:49.521Z,12.87
2022-12-04T02:51:14.687Z,12.80
2022-12-04T02:53:41.903Z,12.00
2022-12-04T02:56:11.915Z,12.97
2022-12-04T02:59:02.256Z,12.43
2022-12-04T03:01:28.668Z,11.67
2022-12-04T03:04:03.917Z,11.37
2022-12-04T03:06:29.653Z,12.00
2022-12-04T03:08:58.670Z,11.33
2022-12-04T03:11:20.534Z,13.60
2022-12-04T03:13:49.136Z,12.57
2022-12-04T03:16:26.299Z,12.53
2022-12-04T03:19:02.340Z,12.53
2022-12-04T03:21:29.559Z,11.80
2022-12-04T03:23:59.630Z,12.60
2022-12-04T03:26:27.491Z,11.67
2022-12-04T03:29:33.466Z,12.50
2022-12-04T03:32:20.992Z,11.13
2022-12-04T03:34:56.884Z,11.90
2022-12-04T03:37:23.679Z,11.97
2022-12-04T03:39:57.072Z,11.37
2022-12-04T03:42:43.835Z,11.73
2022-12-04T03:45:24.946Z,13.03
2022-12-04T03:47:55.442Z,13.20
2022-12-04T03:50:37.905Z,13.40
2022-12-04T03:53:06.543Z,12.43
2022-12-04T03:55:53.174Z,12.67
2022-12-04T03:58:22.104Z,12.60
2022-12-04T04:00:46.164Z,11.40
2022-12-04T04:03:13.814Z,12.37
2022-12-04T04:05:40.705Z,13.70
2022-12-04T04:08:25.149Z,12.60
2022-12-04T04:10:47.545Z,13.83
2022-12-04T04:13:32.038Z,11.97
2022-12-04T04:16:15.211Z,13.53
2022-12-04T04:19:10.681Z,13.77
2022-12-04T04:21:55.015Z,13.33
2022-12-04T04:24:45.475Z,13.03
2022-12-04T04:27:07.061Z,12.00
2022-12-04T04:29:28.718Z,12.80
2022-12-04T04:31:59.130Z,13.27
2022-12-04T04:34:26.077Z,13.33
2022-12-04T04:36:47.521Z,14.17
2022-12-04T04:39:19.623Z,12.57
2022-12-04T04:41:54.794Z,13.23
2022-12-04T04:44:38.889Z,12.70
2022-12-04T04:47:04.163Z,12.63
2022-12-04T04:49:30.962Z,13.27
2022-12-04T04:51:54.161Z,12.40
2022-12-04T04:54:17.799Z,12.90
2022-12-04T04:56:41.379Z,12.47
2022-12-04T04:59:02.811Z,12.37
2022-12-04T05:01:27.942Z,13.27
2022-12-04T05:03:49.552Z,13.53
2022-12-04T05:06:11.055Z,12.77
2022-12-04T05:08:33.250Z,13.37
2022-12-04T05:10:54.703Z,13.80
2022-12-04T05:13:17.220Z,13.63
2022-12-04T05:15:39.560Z,13.53
2022-12-04T05:18:01.095Z,14.90
2022-12-04T05:20:22.553Z,13.37
2022-12-04T05:22:43.990Z,15.17
2022-12-04T05:25:05.922Z,14.83
2022-12-04T05:27:29.057Z,14.33
2022-12-04T05:29:54.306Z,14.90
2022-12-04T05:32:16.081Z,15.03
2022-12-04T05:34:37.646Z,13.83
2022-12-04T05:36:59.139Z,14.07
2022-12-04T05:39:20.579Z,14.17
2022-12-04T05:41:42.109Z,14.77
2022-12-04T05:44:04.110Z,14.57
2022-12-04T05:46:25.573Z,15.13
2022-12-04T05:48:46.995Z,15.40
2022-12-04T05:51:10.298Z,15.53
2022-12-04T05:53:31.744Z,14.97
2022-12-04T05:56:02.141Z,15.43
2022-12-04T05:58:24.685Z,15.20
2022-12-04T06:00:46.127Z,14.97
2022-12-04T06:03:07.646Z,16.47
2022-12-04T06:05:29.136Z,15.17
2022-12-04T06:07:50.632Z,16.43
2022-12-04T06:10:12.187Z,18.03
2022-12-04T06:12:33.835Z,16.77
2022-12-04T06:14:55.361Z,17.97
2022-12-04T06:17:17.843Z,18.93
2022-12-04T06:19:39.562Z,19.00
2022-12-04T06:22:01.078Z,19.07
2022-12-04T06:24:24.453Z,17.37
2022-12-04T06:27:10.966Z,16.17
2022-12-04T06:29:27.511Z,17.27
2022-12-04T06:31:48.993Z,15.93
2022-12-04T06:34:11.092Z,16.03
2022-12-04T06:36:32.857Z,15.87
2022-12-04T06:38:56.229Z,17.53
2022-12-04T06:41:19.979Z,18.47
2022-12-04T06:43:42.159Z,22.73
2022-12-04T06:46:06.603Z,24.40
2022-12-04T06:48:29.320Z,27.73
2022-12-04T06:51:00.636Z,24.37
2022-12-04T06:53:22.054Z,22.33
2022-12-04T06:55:48.794Z,14.67
2022-12-04T06:58:10.244Z,14.87
2022-12-04T07:00:31.691Z,14.50
2022-12-04T07:02:53.252Z,14.70
2022-12-04T07:05:14.916Z,15.43
2022-12-04T07:07:36.621Z,15.30
2022-12-04T07:09:58.383Z,14.90
2022-12-04T07:12:19.997Z,15.60
2022-12-04T07:14:41.436Z,16.33
2022-12-04T07:17:03.013Z,15.90
2022-12-04T07:19:24.510Z,16.43
2022-12-04T07:21:46.389Z,16.27
2022-12-04T07:24:08.320Z,16.93
2022-12-04T07:26:31.013Z,15.13
2022-12-04T07:28:54.106Z,15.90
2022-12-04T07:31:18.399Z,14.50
2022-12-04T07:33:40.749Z,13.70
2022-12-04T07:36:05.655Z,13.83
2022-12-04T07:38:27.365Z,13.63
2022-12-04T07:40:48.830Z,14.07
2022-12-04T07:43:10.265Z,12.77
2022-12-04T07:45:31.759Z,13.70
2022-12-04T07:47:53.262Z,13.40
2022-12-04T07:50:14.688Z,12.53
2022-12-04T07:52:39.890Z,13.43
2022-12-04T07:55:01.370Z,12.77
2022-12-04T07:57:22.831Z,12.30
2022-12-04T07:59:44.471Z,12.60
2022-12-04T08:02:06.918Z,13.30
2022-12-04T08:04:28.405Z,14.53
2022-12-04T08:06:49.861Z,13.17
2022-12-04T08:09:11.305Z,12.90
2022-12-04T08:11:33.542Z,13.77
2022-12-04T08:13:57.186Z,13.23
2022-12-04T08:16:18.744Z,13.30
2022-12-04T08:18:41.526Z,14.07
2022-12-04T08:21:15.433Z,12.73
2022-12-04T08:23:37.691Z,12.87
2022-12-04T08:26:00.545Z,13.60
2022-12-04T08:28:21.969Z,13.83
2022-12-04T08:30:43.428Z,12.83
2022-12-04T08:33:04.954Z,13.50
2022-12-04T08:35:26.423Z,13.00
2022-12-04T08:37:47.906Z,14.07
2022-12-04T08:40:09.864Z,12.87
2022-12-04T08:42:31.321Z,12.70
2022-12-04T08:44:52.718Z,13.07
2022-12-04T08:47:14.247Z,15.20
2022-12-04T08:49:35.695Z,12.83
2022-12-04T08:51:57.146Z,13.90
2022-12-04T08:54:18.564Z,13.23
2022-12-04T08:56:40.165Z,13.27
2022-12-04T08:59:01.892Z,14.63
2022-12-04T09:01:24.023Z,13.93
2022-12-04T09:03:45.571Z,14.27
2022-12-04T09:06:08.653Z,13.57
2022-12-04T09:08:30.602Z,13.33
2022-12-04T09:10:52.136Z,14.53
2022-12-04T09:13:13.601Z,13.77
2022-12-04T09:15:39.354Z,12.93
2022-12-04T09:18:00.852Z,14.50
2022-12-04T09:20:22.313Z,13.10
2022-12-04T09:23:02.681Z,13.47
2022-12-04T09:25:24.656Z,13.60
2022-12-04T09:27:46.093Z,14.30
2022-12-04T09:30:09.483Z,13.90
2022-12-04T09:32:30.993Z,14.37
2022-12-04T09:34:52.975Z,14.27
2022-12-04T09:37:15.746Z,13.97
2022-12-04T09:39:37.176Z,14.10
2022-12-04T09:42:19.023Z,14.83
2022-12-04T09:44:49.030Z,15.13
2022-12-04T09:47:21.634Z,15.13
2022-12-04T09:49:51.922Z,14.73
2022-12-04T09:52:43.905Z,14.03
2022-12-04T09:55:11.482Z,14.30
2022-12-04T09:57:42.229Z,13.63
2022-12-04T10:00:12.070Z,14.17
2022-12-04T10:02:42.587Z,14.00
2022-12-04T10:05:05.981Z,13.53
2022-12-04T10:07:48.964Z,15.23
2022-12-04T10:10:39.020Z,13.47
2022-12-04T10:13:44.108Z,15.60
2022-12-04T10:16:27.337Z,14.63
2022-12-04T10:19:14.591Z,14.03
2022-12-04T10:21:56.993Z,14.03
2022-12-04T10:24:48.015Z,15.37
2022-12-04T10:27:23.942Z,14.87
2022-12-04T10:29:50.520Z,14.40
2022-12-04T10:32:23.290Z,14.43
2022-12-04T10:34:46.196Z,15.37
2022-12-04T10:37:13.202Z,14.50
2022-12-04T10:39:53.345Z,14.37
2022-12-04T10:42:31.141Z,14.83
2022-12-04T10:44:53.184Z,15.27
2022-12-04T10:47:14.786Z,16.40
2022-12-04T10:49:37.427Z,15.53
2022-12-04T10:51:58.965Z,17.03
2022-12-04T10:54:32.697Z,15.23
2022-12-04T10:56:57.208Z,15.30
2022-12-04T10:59:18.817Z,15.30
2022-12-04T11:01:40.342Z,15.80
2022-12-04T11:04:09.431Z,14.40
2022-12-04T11:06:31.359Z,14.13
2022-12-04T11:08:54.260Z,14.23
2022-12-04T11:11:22.762Z,14.67
2022-12-04T11:13:44.189Z,15.20
2022-12-04T11:16:08.881Z,15.33
2022-12-04T11:18:33.574Z,16.50
2022-12-04T11:21:01.699Z,16.57
2022-12-04T11:23:24.400Z,16.13
2022-12-04T11:25:52.482Z,17.83
2022-12-04T11:28:41.259Z,15.63
2022-12-04T11:31:05.310Z,17.07
2022-12-04T11:33:40.077Z,17.73
2022-12-04T11:36:06.206Z,19.43
2022-12-04T11:38:31.863Z,21.03
2022-12-04T11:40:56.297Z,20.70
2022-12-04T11:43:18.857Z,21.17
2022-12-04T11:45:40.949Z,20.07
2022-12-04T11:48:15.291Z,19.77
2022-12-04T11:51:03.245Z,24.07
2022-12-04T11:53:50.448Z,21.53
2022-12-04T11:56:50.521Z,19.80
2022-12-04T11:59:45.780Z,19.80
2022-12-04T12:02:35.996Z,21.03
2022-12-04T12:05:24.771Z,21.17
2022-12-04T12:07:54.381Z,17.63
2022-12-04T12:10:44.773Z,17.10
2022-12-04T12:13:17.671Z,18.23
2022-12-04T12:16:06.306Z,17.80
2022-12-04T12:18:49.230Z,18.80
2022-12-04T12:21:34.846Z,16.13
2022-12-04T12:24:11.536Z,17.83
2022-12-04T12:26:48.192Z,16.70
2022-12-04T12:29:17.463Z,17.17
2022-12-04T12:31:47.646Z,17.47
2022-12-04T12:34:20.072Z,18.20
2022-12-04T12:36:47.270Z,17.70
2022-12-04T12:39:26.783Z,18.63
2022-12-04T12:41:52.518Z,18.83
2022-12-04T12:44:35.851Z,17.67
2022-12-04T12:47:04.025Z,16.40
2022-12-04T12:49:31.387Z,15.37
2022-12-04T12:52:02.701Z,18.77
2022-12-04T12:54:41.148Z,17.80
2022-12-04T12:57:17.282Z,17.03
2022-12-04T12:59:46.286Z,17.23
2022-12-04T13:02:27.425Z,15.17
2022-12-04T13:04:52.979Z,18.57
2022-12-04T13:07:17.467Z,15.43
2022-12-04T13:09:46.211Z,16.10
2022-12-04T13:12:14.688Z,16.33
2022-12-04T13:14:36.966Z,13.80
2022-12-04T13:17:11.341Z,13.50
2022-12-04T13:19:43.360Z,13.30
2022-12-04T13:22:26.839Z,12.80
2022-12-04T13:24:58.791Z,13.77
2022-12-04T13:27:47.910Z,13.60
2022-12-04T13:30:15.438Z,14.57
2022-12-04T13:32:53.820Z,14.83
2022-12-04T13:35:33.233Z,15.03
2022-12-04T13:38:21.949Z,13.70
2022-12-04T13:40:51.490Z,14.67
2022-12-04T13:43:35.482Z,14.60
2022-12-04T13:46:00.517Z,15.13
2022-12-04T13:48:29.747Z,15.27
2022-12-04T13:51:02.021Z,15.03
2022-12-04T13:53:32.268Z,15.77
2022-12-04T13:55:57.430Z,16.10
2022-12-04T13:58:18.814Z,16.43
2022-12-04T14:00:42.681Z,15.27
2022-12-04T14:03:25.290Z,15.80
2022-12-04T14:05:47.596Z,16.10
2022-12-04T14:08:24.125Z,16.63
2022-12-04T14:11:09.240Z,16.70
2022-12-04T14:13:47.533Z,18.10
2022-12-04T14:16:19.221Z,17.80
2022-12-04T14:18:40.837Z,17.47
2022-12-04T14:21:05.385Z,20.93
2022-12-04T14:23:36.191Z,18.57
2022-12-04T14:25:58.166Z,18.03
2022-12-04T14:28:31.430Z,20.07
2022-12-04T14:31:20.090Z,21.33
2022-12-04T14:33:49.483Z,22.47
2022-12-04T14:36:25.168Z,26.57
2022-12-04T14:38:50.725Z,21.27
2022-12-04T14:41:12.250Z,22.93
2022-12-04T14:43:39.451Z,30.73
2022-12-04T14:46:15.241Z,28.23
2022-12-04T14:48:45.768Z,21.83
2022-12-04T14:51:19.222Z,24.97
2022-12-04T14:54:18.245Z,22.70
2022-12-04T14:57:17.275Z,22.93
2022-12-04T14:59:49.608Z,18.27
2022-12-04T15:02:18.691Z,18.43
2022-12-04T15:04:45.976Z,18.43
2022-12-04T15:07:08.802Z,22.67
2022-12-04T15:09:48.699Z,23.87
2022-12-04T15:12:33.515Z,22.67
2022-12-04T15:15:02.099Z,21.60
2022-12-04T15:17:23.544Z,20.47
2022-12-04T15:19:45.834Z,19.87
2022-12-04T15:22:22.388Z,19.27
2022-12-04T15:24:43.952Z,19.53
2022-12-04T15:27:06.960Z,20.20
2022-12-04T15:29:31.660Z,20.10
2022-12-04T15:31:56.914Z,26.93
2022-12-04T15:34:22.067Z,29.43
2022-12-04T15:36:50.533Z,28.50
2022-12-04T15:39:17.533Z,25.97
2022-12-04T15:41:39.172Z,26.17
2022-12-04T15:44:01.363Z,35.07
2022-12-04T15:46:26.290Z,34.97
2022-12-04T15:48:48.175Z,30.97
2022-12-04T15:51:12.283Z,29.50
2022-12-04T15:53:37.823Z,27.50
2022-12-04T15:56:06.148Z,26.80
2022-12-04T15:58:30.662Z,26.60
2022-12-04T16:00:58.448Z,25.67
2022-12-04T16:03:25.281Z,28.83
2022-12-04T16:05:47.704Z,26.63
2022-12-04T16:08:30.835Z,24.70
2022-12-04T16:11:05.019Z,23.63
2022-12-04T16:13:32.660Z,23.00
2022-12-04T16:15:56.558Z,21.60
2022-12-04T16:18:18.775Z,20.33
2022-12-04T16:20:41.361Z,20.30
2022-12-04T16:23:04.015Z,22.33
2022-12-04T16:25:25.485Z,22.47
2022-12-04T16:27:46.913Z,22.53
2022-12-04T16:30:09.387Z,29.97
2022-12-04T16:32:33.348Z,41.33
2022-12-04T16:34:55.170Z,40.47
2022-12-04T16:37:19.560Z,50.43
2022-12-04T16:39:41.613Z,42.13
2022-12-04T16:42:03.343Z,36.73
2022-12-04T16:44:24.924Z,27.07
2022-12-04T16:46:46.470Z,40.07
2022-12-04T16:49:11.445Z,41.00
2022-12-04T16:51:32.984Z,74.73
2022-12-04T16:53:55.250Z,39.80
2022-12-04T16:56:16.807Z,38.90
2022-12-04T16:58:38.306Z,37.77
2022-12-04T17:01:00.125Z,30.27
2022-12-04T17:03:28.485Z,28.60
2022-12-04T17:05:50.086Z,25.07
2022-12-04T17:08:11.697Z,37.07
2022-12-04T17:10:33.216Z,34.77
2022-12-04T17:12:54.881Z,28.60
2022-12-04T17:15:16.408Z,26.83
2022-12-04T17:17:38.924Z,28.00
2022-12-04T17:20:00.485Z,25.47
2022-12-04T17:22:26.253Z,26.43
2022-12-04T17:24:52.950Z,25.47
2022-12-04T17:27:17.361Z,24.77
2022-12-04T17:29:38.873Z,23.43
2022-12-04T17:32:00.400Z,23.97
2022-12-04T17:34:21.877Z,22.87
2022-12-04T17:36:43.357Z,22.53
2022-12-04T17:39:07.257Z,22.90
2022-12-04T17:41:29.510Z,21.20
2022-12-04T17:43:51.200Z,23.27
2022-12-04T17:46:15.758Z,25.40
2022-12-04T17:48:37.326Z,24.83
2022-12-04T17:51:25.367Z,23.80
2022-12-04T17:53:47.534Z,22.23
2022-12-04T17:56:17.307Z,22.03
2022-12-04T17:58:39.089Z,21.27
2022-12-04T18:01:09.278Z,20.50
2022-12-04T18:03:30.936Z,19.63
2022-12-04T18:05:52.500Z,19.67
2022-12-04T18:08:14.007Z,20.43
2022-12-04T18:10:35.582Z,20.93
2022-12-04T18:12:57.014Z,20.50
2022-12-04T18:15:18.474Z,21.90
2022-12-04T18:17:39.974Z,20.97
2022-12-04T18:20:05.102Z,19.97
2022-12-04T18:22:27.706Z,21.83
2022-12-04T18:24:49.304Z,22.93
2022-12-04T18:27:10.959Z,23.03
2022-12-04T18:29:32.401Z,22.30
2022-12-04T18:31:54.436Z,20.90
2022-12-04T18:34:16.029Z,22.97
2022-12-04T18:36:41.485Z,22.03
2022-12-04T18:39:06.197Z,22.90
2022-12-04T18:41:29.068Z,20.90
2022-12-04T18:43:51.271Z,22.43
2022-12-04T18:46:16.162Z,22.37
2022-12-04T18:48:39.078Z,23.83
2022-12-04T18:51:00.553Z,22.67
2022-12-04T18:53:22.390Z,23.27
2022-12-04T18:55:44.245Z,21.83
2022-12-04T18:58:07.812Z,22.00
2022-12-04T19:00:29.384Z,22.63
2022-12-04T19:02:50.905Z,28.13
2022-12-04T19:05:13.166Z,24.67
2022-12-04T19:07:34.734Z,23.63
2022-12-04T19:10:11.803Z,24.30
2022-12-04T19:12:33.505Z,23.50
2022-12-04T19:14:54.997Z,22.83
2022-12-04T19:17:16.890Z,22.17
2022-12-04T19:19:38.510Z,23.70
2022-12-04T19:22:01.135Z,25.60
2022-12-04T19:24:22.610Z,27.57
2022-12-04T19:26:44.982Z,32.33
2022-12-04T19:29:07.922Z,30.73
2022-12-04T19:31:34.821Z,27.60
2022-12-04T19:33:57.727Z,25.70
2022-12-04T19:36:19.892Z,22.43
2022-12-04T19:38:42.604Z,21.63
2022-12-04T19:41:10.809Z,21.50
2022-12-04T19:43:32.327Z,20.23
2022-12-04T19:45:53.850Z,20.40
2022-12-04T19:48:15.366Z,20.63
2022-12-04T19:50:36.850Z,20.87
2022-12-04T19:52:58.279Z,22.13
2022-12-04T19:55:20.892Z,20.30
2022-12-04T19:57:42.421Z,19.60
2022-12-04T20:00:04.455Z,20.30
2022-12-04T20:02:26.234Z,20.60
2022-12-04T20:04:47.835Z,20.63
2022-12-04T20:07:09.330Z,22.20
2022-12-04T20:09:31.222Z,24.30
2022-12-04T20:11:53.656Z,23.43
2022-12-04T20:14:15.131Z,21.17
2022-12-04T20:16:37.740Z,22.37
2022-12-04T20:18:59.757Z,22.60
2022-12-04T20:21:25.592Z,22.43
2022-12-04T20:23:49.864Z,21.60
2022-12-04T20:26:13.632Z,20.00
2022-12-04T20:28:36.406Z,20.67
2022-12-04T20:30:58.083Z,20.33
2022-12-04T20:33:19.613Z,20.23
2022-12-04T20:35:41.137Z,21.07
2022-12-04T20:38:03.641Z,23.10
2022-12-04T20:40:25.066Z,20.57
2022-12-04T20:42:46.600Z,21.80
2022-12-04T20:45:08.630Z,20.80
2022-12-04T20:47:30.208Z,19.70
2022-12-04T20:49:51.652Z,20.53
2022-12-04T20:52:13.239Z,20.00
2022-12-04T20:54:41.095Z,19.67
2022-12-04T20:57:03.176Z,18.87
2022-12-04T20:59:25.195Z,19.33
2022-12-04T21:01:48.982Z,18.57
2022-12-04T21:04:12.701Z,18.33
2022-12-04T21:06:37.036Z,18.50
2022-12-04T21:09:01.992Z,19.07
2022-12-04T21:11:34.990Z,19.30
2022-12-04T21:14:16.206Z,19.47
2022-12-04T21:16:37.861Z,20.40
2022-12-04T21:18:59.274Z,19.67
2022-12-04T21:21:21.065Z,19.83
2022-12-04T21:23:42.503Z,18.83
2022-12-04T21:26:04.000Z,19.47
2022-12-04T21:28:25.509Z,19.73
2022-12-04T21:30:46.978Z,18.03
2022-12-04T21:33:08.455Z,18.57
2022-12-04T21:35:29.894Z,19.27
2022-12-04T21:37:51.364Z,19.60
2022-12-04T21:40:12.921Z,20.90
2022-12-04T21:42:35.420Z,21.53
2022-12-04T21:44:57.762Z,21.53
2022-12-04T21:47:19.273Z,21.30
2022-12-04T21:49:40.717Z,19.70
2022-12-04T21:52:02.162Z,18.43
2022-12-04T21:54:23.694Z,19.97
2022-12-04T21:56:45.152Z,19.57
2022-12-04T21:59:06.668Z,18.90
2022-12-04T22:01:28.537Z,18.63
2022-12-04T22:03:51.520Z,17.33
2022-12-04T22:06:13.440Z,17.50
2022-12-04T22:08:36.425Z,18.90
2022-12-04T22:10:57.967Z,18.77
2022-12-04T22:13:19.480Z,17.30
2022-12-04T22:15:44.261Z,17.90
2022-12-04T22:18:06.927Z,16.97
2022-12-04T22:20:28.422Z,17.87
2022-12-04T22:22:49.959Z,17.93
2022-12-04T22:25:11.485Z,16.93
2022-12-04T22:27:32.963Z,17.57
2022-12-04T22:29:54.657Z,18.67
2022-12-04T22:32:16.091Z,17.90
2022-12-04T22:34:37.506Z,17.93
2022-12-04T22:36:58.921Z,18.30
2022-12-04T22:39:20.416Z,17.87
2022-12-04T22:41:41.855Z,21.20
2022-12-04T22:44:03.998Z,20.47
2022-12-04T22:46:25.519Z,19.47
2022-12-04T22:48:47.056Z,18.83
2022-12-04T22:51:13.967Z,18.17
2022-12-04T22:53:38.289Z,18.93
2022-12-04T22:56:14.462Z,19.90
2022-12-04T22:58:36.817Z,18.70
2022-12-04T23:00:58.260Z,18.90
2022-12-04T23:03:19.750Z,17.77
2022-12-04T23:05:41.834Z,19.03
2022-12-04T23:08:03.856Z,19.20
2022-12-04T23:10:25.457Z,18.13
2022-12-04T23:12:46.896Z,19.27
2022-12-04T23:15:08.656Z,17.90
2022-12-04T23:17:30.490Z,18.97
2022-12-04T23:19:51.919Z,18.87
2022-12-04T23:22:13.383Z,18.53
2022-12-04T23:24:37.975Z,20.17
2022-12-04T23:26:59.432Z,18.67
2022-12-04T23:29:51.409Z,18.43
2022-12-04T23:32:02.421Z,17.60
2022-12-04T23:34:24.257Z,19.00
2022-12-04T23:36:45.703Z,18.70
2022-12-04T23:39:07.126Z,18.97
2022-12-04T23:41:30.993Z,19.40
2022-12-04T23:43:53.738Z,18.70
2022-12-04T23:46:18.038Z,19.10
2022-12-04T23:48:41.243Z,18.87
2022-12-04T23:51:02.798Z,18.47
2022-12-04T23:53:24.664Z,20.00
2022-12-04T23:55:58.776Z,18.70
2022-12-04T23:58:20.226Z,18.67
